Time;durP1;ratioP1;P1;durP2;ratioP2;P2;SDS_P1;SDS_P2;PMS_P1;PMS_P2;Temp;Humidity;BMP_temperature;BMP_pressure;BME280_temperature;BME280_humidity;BME280_pressure;Samples;Min_cycle;Max_cycle;Signal;HPM_P1;HPM_P2
2021/12/22 00:01:00;;;;;;;21.95;9.20;;;-2.70;99.90;;;;;;5055787;28;20084;-71
2021/12/22 00:03:26;;;;;;;20.20;8.63;;;-2.50;99.90;;;;;;5056097;28;20044;-71
2021/12/22 00:05:53;;;;;;;21.33;9.85;;;-2.80;99.90;;;;;;5055808;28;20546;-72
2021/12/22 00:08:18;;;;;;;23.35;9.40;;;-2.80;99.90;;;;;;5056148;28;20052;-72
2021/12/22 00:10:46;;;;;;;18.73;9.00;;;-2.80;99.90;;;;;;5055929;28;20041;-71
2021/12/22 00:13:12;;;;;;;19.25;9.25;;;-2.80;99.90;;;;;;5055611;28;20052;-71
2021/12/22 00:15:37;;;;;;;19.15;8.43;;;-2.80;99.90;;;;;;5037839;28;20080;-72
2021/12/22 00:18:03;;;;;;;22.67;8.80;;;-2.90;99.90;;;;;;5038079;28;20045;-70
2021/12/22 00:20:29;;;;;;;21.00;9.05;;;-2.90;99.90;;;;;;5055800;28;20045;-70
2021/12/22 00:22:56;;;;;;;22.27;8.10;;;-3.00;99.90;;;;;;5055622;28;20057;-71
2021/12/22 00:25:25;;;;;;;18.40;8.05;;;-3.00;99.90;;;;;;5037922;28;20051;-71
2021/12/22 00:27:52;;;;;;;19.73;8.38;;;-3.00;99.90;;;;;;5054533;28;20049;-72
2021/12/22 00:30:18;;;;;;;19.85;8.30;;;-3.10;99.90;;;;;;5055269;28;20048;-71
2021/12/22 00:32:50;;;;;;;18.40;8.15;;;-3.10;99.90;;;;;;5055381;28;20048;-71
2021/12/22 00:35:19;;;;;;;16.65;7.88;;;-3.20;99.90;;;;;;5055334;28;20048;-70
2021/12/22 00:37:45;;;;;;;16.98;7.32;;;-3.20;99.90;;;;;;5037521;28;20065;-71
2021/12/22 00:40:11;;;;;;;17.08;7.88;;;-3.20;99.90;;;;;;5055717;28;20052;-70
2021/12/22 00:42:37;;;;;;;18.10;7.32;;;-3.30;99.90;;;;;;5055492;28;20045;-71
2021/12/22 00:45:03;;;;;;;18.67;8.73;;;-3.20;99.90;;;;;;5055011;28;20091;-71
2021/12/22 00:47:30;;;;;;;19.38;9.02;;;-3.20;99.90;;;;;;5037663;28;20450;-71
2021/12/22 00:49:57;;;;;;;22.50;9.20;;;-3.20;99.90;;;;;;5055366;28;20123;-71
2021/12/22 00:52:24;;;;;;;20.48;9.30;;;-3.20;99.90;;;;;;5055146;28;20145;-71
2021/12/22 00:54:51;;;;;;;19.63;8.73;;;-3.30;99.90;;;;;;5055316;28;20444;-71
2021/12/22 00:57:17;;;;;;;20.38;9.60;;;-3.30;99.90;;;;;;5055051;28;20455;-71
2021/12/22 00:59:46;;;;;;;23.52;10.05;;;-3.30;99.90;;;;;;5054495;28;20041;-71
2021/12/22 01:02:13;;;;;;;20.90;9.55;;;-3.20;99.90;;;;;;5054915;28;20049;-71
2021/12/22 01:04:39;;;;;;;17.77;9.85;;;-3.30;99.90;;;;;;5055010;28;20094;-71
2021/12/22 01:07:06;;;;;;;22.15;10.35;;;-3.30;99.90;;;;;;5037063;28;20053;-71
2021/12/22 01:09:32;;;;;;;27.92;10.25;;;-2.80;99.90;;;;;;5037088;28;20064;-71
2021/12/22 01:11:58;;;;;;;28.15;10.73;;;-3.30;99.90;;;;;;5055008;28;20045;-72
2021/12/22 01:14:24;;;;;;;20.65;10.63;;;-3.30;99.90;;;;;;5037569;28;20045;-71
2021/12/22 01:16:54;;;;;;;24.85;10.82;;;-3.30;99.90;;;;;;5036593;28;20050;-71
2021/12/22 01:19:31;;;;;;;20.90;10.20;;;-3.40;99.90;;;;;;5037025;28;20079;-71
2021/12/22 01:22:08;;;;;;;20.02;9.80;;;-3.40;99.90;;;;;;5020649;28;20132;-71
2021/12/22 01:24:34;;;;;;;22.05;10.60;;;-3.30;99.90;;;;;;5037075;28;20052;-72
2021/12/22 01:27:09;;;;;;;23.80;9.32;;;-3.10;99.90;;;;;;5020062;28;20040;-71
2021/12/22 01:29:37;;;;;;;23.73;10.68;;;-3.40;99.90;;;;;;5036710;28;20584;-72
2021/12/22 01:32:04;;;;;;;22.10;10.60;;;-3.40;99.90;;;;;;5036215;28;20106;-71
2021/12/22 01:34:30;;;;;;;22.75;10.15;;;-3.40;99.90;;;;;;5054684;28;20079;-68
2021/12/22 01:36:57;;;;;;;21.88;10.20;;;-3.40;99.90;;;;;;5038130;28;20083;-71
2021/12/22 01:39:23;;;;;;;18.42;10.07;;;-3.50;99.90;;;;;;5055746;28;20044;-69
2021/12/22 01:41:48;;;;;;;21.38;10.32;;;-3.50;99.90;;;;;;5055608;28;20049;-73
2021/12/22 01:45:11;;;;;;;22.95;9.43;;;-3.50;99.90;;;;;;5055482;28;20049;-71
2021/12/22 01:50:37;;;;;;;21.38;11.32;;;-3.70;99.90;;;;;;4979223;28;20047;-71
2021/12/22 01:53:29;;;;;;;21.52;9.65;;;-3.70;99.90;;;;;;4994931;28;20141;-71
2021/12/22 01:56:32;;;;;;;20.58;10.55;;;-3.70;99.90;;;;;;4994699;28;20109;-71
2021/12/22 01:58:57;;;;;;;20.17;10.77;;;-3.70;99.90;;;;;;4994839;28;20060;-70
2021/12/22 02:01:25;;;;;;;26.10;11.40;;;-3.70;99.90;;;;;;4992485;28;20046;-71
2021/12/22 02:03:52;;;;;;;24.50;10.90;;;-3.70;99.90;;;;;;4991857;28;20085;-71
2021/12/22 02:06:19;;;;;;;21.02;9.80;;;-3.70;99.90;;;;;;4992137;28;20054;-70
2021/12/22 02:08:46;;;;;;;23.15;10.65;;;-3.70;99.90;;;;;;4992222;28;20061;-72
2021/12/22 02:11:17;;;;;;;23.20;10.77;;;-3.80;99.90;;;;;;4992215;28;20482;-71
2021/12/22 02:13:47;;;;;;;23.35;10.93;;;-3.80;99.90;;;;;;4993245;28;20057;-73
2021/12/22 02:16:13;;;;;;;22.75;10.05;;;-3.80;99.90;;;;;;4993049;28;20473;-71
2021/12/22 02:18:46;;;;;;;21.95;9.95;;;-3.90;99.90;;;;;;4992360;28;20045;-73
2021/12/22 02:21:12;;;;;;;22.65;11.73;;;-3.90;99.90;;;;;;4975701;28;20054;-71
2021/12/22 02:23:41;;;;;;;20.95;9.98;;;-3.90;99.90;;;;;;5044814;28;20041;-68
2021/12/22 02:26:17;;;;;;;23.92;10.65;;;-3.90;99.90;;;;;;5053602;28;20400;-71
2021/12/22 02:28:47;;;;;;;21.33;9.93;;;-3.90;99.90;;;;;;5053302;28;20041;-70
2021/12/22 02:31:17;;;;;;;21.50;10.77;;;-4.00;99.90;;;;;;5053457;28;20045;-71
2021/12/22 02:33:46;;;;;;;23.83;10.30;;;-4.00;99.90;;;;;;5036113;28;20439;-70
2021/12/22 02:38:45;;;;;;;21.23;9.73;;;-4.00;99.90;;;;;;5053482;28;20404;-71
2021/12/22 02:41:13;;;;;;;20.63;10.85;;;-4.00;99.90;;;;;;5053198;28;20076;-72
2021/12/22 02:43:49;;;;;;;23.17;10.43;;;-4.10;99.90;;;;;;5053129;28;20087;-71
2021/12/22 02:46:18;;;;;;;21.75;9.48;;;-4.10;99.90;;;;;;5035346;28;20080;-71
2021/12/22 02:48:44;;;;;;;20.42;10.55;;;-4.10;99.90;;;;;;5053415;28;20075;-71
2021/12/22 02:51:10;;;;;;;19.40;9.27;;;-4.10;99.90;;;;;;5052164;28;20041;-71
2021/12/22 02:58:57;;;;;;;21.30;9.63;;;-4.20;99.90;;;;;;5053315;28;20132;-71
2021/12/22 03:04:08;;;;;;;20.65;10.25;;;-4.20;99.90;;;;;;5054155;28;20045;-70
2021/12/22 03:09:13;;;;;;;19.88;9.38;;;-4.30;99.90;;;;;;5054097;28;20080;-69
2021/12/22 03:11:39;;;;;;;20.45;9.25;;;-4.30;99.90;;;;;;5037724;28;20053;-71
2021/12/22 03:14:04;;;;;;;18.98;10.00;;;-4.30;99.90;;;;;;5037751;28;20056;-71
2021/12/22 03:16:30;;;;;;;21.92;10.18;;;-4.40;99.90;;;;;;5037411;28;20061;-72
2021/12/22 03:18:56;;;;;;;20.20;9.13;;;-4.40;99.90;;;;;;5037901;28;20045;-72
2021/12/22 03:21:23;;;;;;;20.63;9.95;;;-4.40;99.90;;;;;;5055309;28;20553;-72
2021/12/22 03:23:51;;;;;;;21.25;9.50;;;-4.40;99.90;;;;;;5054601;28;20131;-71
2021/12/22 03:26:18;;;;;;;19.90;9.23;;;-4.50;99.90;;;;;;5054493;28;20045;-70
2021/12/22 03:28:45;;;;;;;18.70;8.75;;;-4.50;99.90;;;;;;5052907;28;20044;-74
2021/12/22 03:31:12;;;;;;;19.95;9.60;;;-4.50;99.90;;;;;;5034696;28;20081;-76
2021/12/22 03:33:38;;;;;;;18.23;9.43;;;-4.50;99.90;;;;;;5034736;28;20107;-71
2021/12/22 03:36:04;;;;;;;19.45;8.98;;;-4.50;99.90;;;;;;5034711;28;20051;-69
2021/12/22 03:38:32;;;;;;;19.60;9.20;;;-4.60;99.90;;;;;;5034114;28;20092;-73
2021/12/22 03:40:58;;;;;;;21.65;10.38;;;-4.60;99.90;;;;;;5034886;28;20053;-71
2021/12/22 03:43:23;;;;;;;20.20;10.63;;;-4.60;99.90;;;;;;5052786;28;20128;-74
2021/12/22 03:45:49;;;;;;;20.55;9.85;;;-4.60;99.90;;;;;;5052752;28;20037;-70
2021/12/22 03:48:17;;;;;;;21.98;10.43;;;-4.60;99.90;;;;;;5052566;28;20120;-71
2021/12/22 03:50:43;;;;;;;22.35;10.30;;;-4.60;99.90;;;;;;5052388;28;20045;-74
2021/12/22 03:53:10;;;;;;;20.42;10.60;;;-4.60;99.90;;;;;;5034546;28;20045;-70
2021/12/22 03:55:35;;;;;;;20.58;10.77;;;-4.60;99.90;;;;;;5051985;28;20041;-70
2021/12/22 03:58:01;;;;;;;18.85;9.18;;;-4.60;99.90;;;;;;5052352;28;20152;-72
2021/12/22 04:00:27;;;;;;;19.45;9.43;;;-4.60;99.90;;;;;;5052348;28;20056;-71
2021/12/22 04:02:53;;;;;;;21.17;10.95;;;-4.60;99.90;;;;;;5053109;28;20396;-71
2021/12/22 04:05:19;;;;;;;20.55;10.13;;;-4.70;99.90;;;;;;5056081;28;20056;-71
2021/12/22 04:07:45;;;;;;;24.30;10.88;;;-4.70;99.90;;;;;;5037880;28;20084;-69
2021/12/22 04:10:20;;;;;;;20.23;10.55;;;-4.70;99.90;;;;;;5055679;28;20445;-70
2021/12/22 04:12:56;;;;;;;20.23;10.90;;;-4.70;99.90;;;;;;5055740;28;20404;-70
2021/12/22 04:15:24;;;;;;;22.13;10.80;;;-4.70;99.90;;;;;;5055627;28;20056;-72
2021/12/22 04:17:50;;;;;;;20.73;10.80;;;-4.70;99.90;;;;;;5055756;28;20083;-71
2021/12/22 04:20:16;;;;;;;20.73;10.63;;;-4.70;99.90;;;;;;5055615;28;20147;-71
2021/12/22 04:22:42;;;;;;;21.02;10.75;;;-4.70;99.90;;;;;;5055660;28;20123;-74
2021/12/22 04:25:09;;;;;;;21.98;10.82;;;-4.70;99.90;;;;;;5037904;28;20045;-70
2021/12/22 04:27:36;;;;;;;21.02;10.85;;;-4.70;99.90;;;;;;5037285;28;20123;-70
2021/12/22 04:30:04;;;;;;;23.85;10.75;;;-4.80;99.90;;;;;;5055891;28;20116;-71
2021/12/22 04:32:30;;;;;;;21.20;10.10;;;-4.80;99.90;;;;;;5055274;28;20152;-71
2021/12/22 04:34:56;;;;;;;21.38;10.32;;;-4.80;99.90;;;;;;5055487;28;20084;-72
2021/12/22 04:37:22;;;;;;;19.08;9.88;;;-4.80;99.90;;;;;;5055396;28;20029;-72
2021/12/22 04:39:47;;;;;;;22.45;10.48;;;-4.80;99.90;;;;;;5055544;28;20037;-72
2021/12/22 04:42:15;;;;;;;19.63;10.18;;;-4.80;99.90;;;;;;5054907;28;20045;-74
2021/12/22 04:44:41;;;;;;;22.52;11.02;;;-4.80;99.90;;;;;;5037521;28;20107;-70
2021/12/22 04:47:06;;;;;;;21.02;11.30;;;-4.80;99.90;;;;;;5055134;28;20049;-71
2021/12/22 04:49:32;;;;;;;25.27;11.90;;;-4.90;99.90;;;;;;5055065;28;20411;-71
2021/12/22 04:51:59;;;;;;;24.45;11.32;;;-4.90;99.90;;;;;;5054860;28;20045;-71
2021/12/22 04:56:54;;;;;;;22.25;10.98;;;-4.90;99.90;;;;;;5054949;28;20091;-73
2021/12/22 04:59:20;;;;;;;21.08;10.93;;;-4.90;99.90;;;;;;5054632;28;20080;-73
2021/12/22 05:01:46;;;;;;;21.77;11.45;;;-4.90;99.90;;;;;;5054981;28;20467;-71
2021/12/22 05:04:11;;;;;;;19.65;10.32;;;-4.90;99.90;;;;;;5036736;28;20045;-71
2021/12/22 05:06:37;;;;;;;23.77;10.88;;;-4.90;99.90;;;;;;5037344;28;20056;-71
2021/12/22 05:09:04;;;;;;;18.67;10.75;;;-4.90;99.90;;;;;;5037249;28;20055;-71
2021/12/22 05:11:34;;;;;;;23.08;10.88;;;-5.00;99.90;;;;;;5020797;28;20049;-70
2021/12/22 05:14:02;;;;;;;19.48;10.45;;;-5.00;99.90;;;;;;5053876;28;20072;-70
2021/12/22 05:16:28;;;;;;;22.17;10.60;;;-5.00;99.90;;;;;;5054720;28;20115;-71
2021/12/22 05:19:12;;;;;;;24.63;10.82;;;-5.00;99.90;;;;;;5054488;28;20037;-72
2021/12/22 05:21:38;;;;;;;19.05;10.20;;;-5.00;99.90;;;;;;5020141;28;20053;-70
2021/12/22 05:24:04;;;;;;;20.60;10.60;;;-5.00;99.90;;;;;;5054724;28;20128;-72
2021/12/22 05:26:30;;;;;;;22.60;10.07;;;-5.10;99.90;;;;;;5054468;28;20056;-71
2021/12/22 05:28:56;;;;;;;19.50;10.07;;;-5.10;99.90;;;;;;5054131;28;20049;-71
2021/12/22 05:31:23;;;;;;;22.35;10.52;;;-5.10;99.90;;;;;;5053992;28;20087;-71
2021/12/22 05:33:49;;;;;;;22.75;10.80;;;-5.10;99.90;;;;;;5036322;28;20067;-71
2021/12/22 05:36:15;;;;;;;20.20;10.52;;;-5.10;99.90;;;;;;5054618;28;20064;-70
2021/12/22 05:38:40;;;;;;;23.05;11.23;;;-5.10;99.90;;;;;;5054497;28;20041;-72
2021/12/22 05:41:06;;;;;;;22.98;10.55;;;-5.20;99.90;;;;;;5036358;28;20409;-72
2021/12/22 05:43:32;;;;;;;20.05;10.68;;;-5.20;99.90;;;;;;5054311;28;20041;-71
2021/12/22 05:46:00;;;;;;;19.80;9.90;;;-5.20;99.90;;;;;;5053726;28;20095;-72
2021/12/22 05:48:26;;;;;;;23.85;10.38;;;-5.20;99.90;;;;;;5053798;28;20045;-71
2021/12/22 05:50:56;;;;;;;22.08;10.55;;;-5.20;99.90;;;;;;5054181;28;20036;-71
2021/12/22 05:53:22;;;;;;;23.30;11.05;;;-5.20;99.90;;;;;;5036236;28;20052;-73
2021/12/22 05:55:48;;;;;;;20.42;10.90;;;-5.20;99.90;;;;;;5036330;28;20100;-73
2021/12/22 05:58:14;;;;;;;20.50;11.10;;;-4.00;99.90;;;;;;5053677;28;20063;-71
2021/12/22 06:00:40;;;;;;;23.58;12.13;;;-5.20;99.90;;;;;;5053516;28;20048;-71
2021/12/22 06:03:05;;;;;;;25.42;12.85;;;-5.30;99.90;;;;;;5053548;28;20444;-72
2021/12/22 06:05:31;;;;;;;25.73;12.32;;;-5.30;99.90;;;;;;5053724;28;20076;-71
2021/12/22 06:07:57;;;;;;;22.25;11.45;;;-5.30;99.90;;;;;;5053881;28;20039;-70
2021/12/22 06:10:23;;;;;;;22.85;11.27;;;-5.30;99.90;;;;;;5053736;28;20106;-71
2021/12/22 06:12:48;;;;;;;20.48;10.73;;;-5.30;99.90;;;;;;5053587;28;20170;-70
2021/12/22 06:15:14;;;;;;;23.48;11.10;;;-5.30;99.90;;;;;;5035911;28;20476;-72
2021/12/22 06:17:40;;;;;;;21.73;10.25;;;-5.30;99.90;;;;;;5035399;28;20049;-70
2021/12/22 06:20:06;;;;;;;23.25;11.68;;;-5.40;99.90;;;;;;5035394;28;20051;-71
2021/12/22 06:22:34;;;;;;;25.15;11.35;;;-5.40;99.90;;;;;;5053651;28;20052;-70
2021/12/22 06:25:00;;;;;;;24.92;10.32;;;-5.30;99.90;;;;;;5052990;28;20511;-73
2021/12/22 06:27:25;;;;;;;19.40;10.32;;;-5.40;99.90;;;;;;5035085;28;20037;-71
2021/12/22 06:29:51;;;;;;;23.25;11.40;;;-5.40;99.90;;;;;;5053248;28;20476;-71
2021/12/22 06:32:17;;;;;;;23.17;11.25;;;-5.40;99.90;;;;;;5052815;28;20045;-73
2021/12/22 06:34:42;;;;;;;21.85;10.80;;;-5.40;99.90;;;;;;5052783;28;20072;-72
2021/12/22 06:37:08;;;;;;;22.83;10.60;;;-5.40;99.90;;;;;;5035553;28;20045;-71
2021/12/22 06:39:34;;;;;;;19.83;9.40;;;-5.40;99.90;;;;;;5053068;28;20037;-69
2021/12/22 06:42:00;;;;;;;23.55;9.98;;;-5.40;99.90;;;;;;5053291;28;20045;-72
2021/12/22 06:44:26;;;;;;;22.48;10.90;;;-5.40;99.90;;;;;;5053055;28;20033;-69
2021/12/22 06:46:52;;;;;;;20.80;9.88;;;-5.40;99.90;;;;;;5053003;28;20081;-70
2021/12/22 06:49:19;;;;;;;21.23;10.60;;;-5.30;99.90;;;;;;5017354;28;20064;-72
2021/12/22 06:51:44;;;;;;;20.23;10.07;;;-5.40;99.90;;;;;;5052970;28;20041;-69
2021/12/22 06:54:10;;;;;;;25.10;9.52;;;-5.30;99.90;;;;;;5035102;28;20404;-70
2021/12/22 06:56:38;;;;;;;20.13;9.80;;;-5.30;99.90;;;;;;5053027;28;20542;-71
2021/12/22 06:59:04;;;;;;;23.92;10.68;;;-5.40;99.90;;;;;;5052808;28;20098;-70
2021/12/22 07:01:33;;;;;;;21.77;10.63;;;-5.40;99.90;;;;;;5035067;28;20045;-71
2021/12/22 07:03:58;;;;;;;22.90;10.43;;;-5.40;99.90;;;;;;5034246;28;20132;-71
2021/12/22 07:06:24;;;;;;;23.35;11.13;;;-5.40;99.90;;;;;;5052544;28;20516;-72
2021/12/22 07:08:49;;;;;;;24.38;10.23;;;-5.40;99.90;;;;;;5053027;28;20136;-71
2021/12/22 07:11:15;;;;;;;24.30;10.45;;;-5.40;99.90;;;;;;5035046;28;20068;-68
2021/12/22 07:13:41;;;;;;;22.05;10.98;;;-5.40;99.90;;;;;;5052852;28;20049;-67
2021/12/22 07:16:07;;;;;;;20.83;10.07;;;-5.40;99.90;;;;;;5052853;28;20120;-71
2021/12/22 07:18:34;;;;;;;25.08;11.05;;;-5.40;99.90;;;;;;5052564;28;20052;-71
2021/12/22 07:21:00;;;;;;;27.50;10.60;;;-5.40;99.90;;;;;;5052529;28;20087;-71
2021/12/22 07:23:26;;;;;;;20.27;10.40;;;-5.40;99.90;;;;;;5034786;28;20107;-71
2021/12/22 07:25:52;;;;;;;21.20;10.27;;;-5.40;99.90;;;;;;5052729;28;20081;-71
2021/12/22 07:28:17;;;;;;;24.83;11.90;;;-5.40;99.90;;;;;;5052741;28;20072;-73
2021/12/22 07:30:43;;;;;;;27.88;11.93;;;-5.40;99.90;;;;;;5052662;28;20033;-70
2021/12/22 07:33:09;;;;;;;24.80;12.52;;;-5.40;99.90;;;;;;5052607;28;20045;-72
2021/12/22 07:35:58;;;;;;;21.92;10.93;;;-5.30;99.90;;;;;;5052115;28;20127;-69
2021/12/22 07:39:00;;;;;;;22.70;11.18;;;-5.30;99.90;;;;;;5055631;28;20091;-74
2021/12/22 07:41:26;;;;;;;24.20;10.82;;;-5.30;99.90;;;;;;5056433;28;20045;-70
2021/12/22 07:43:52;;;;;;;21.50;10.27;;;-5.30;99.90;;;;;;5056305;28;20041;-70
2021/12/22 07:46:18;;;;;;;20.42;9.55;;;-5.30;99.90;;;;;;5038450;28;20111;-70
2021/12/22 07:48:44;;;;;;;23.70;10.43;;;-5.30;99.90;;;;;;5038376;28;20381;-71
2021/12/22 07:51:10;;;;;;;22.42;10.45;;;-5.30;99.90;;;;;;5056145;28;20037;-68
2021/12/22 07:53:36;;;;;;;26.42;11.20;;;-5.30;99.90;;;;;;5055796;28;20102;-69
2021/12/22 07:56:02;;;;;;;23.95;10.38;;;-5.20;99.90;;;;;;5038269;28;20045;-71
2021/12/22 07:58:28;;;;;;;25.25;11.98;;;-5.30;99.90;;;;;;5055803;28;20451;-69
2021/12/22 08:00:55;;;;;;;25.42;10.90;;;-5.30;99.90;;;;;;5056247;28;20052;-70
2021/12/22 08:03:22;;;;;;;23.45;10.50;;;-5.20;99.90;;;;;;5056064;28;20485;-69
2021/12/22 08:05:48;;;;;;;24.27;11.45;;;-5.20;99.90;;;;;;5038144;28;20053;-70
2021/12/22 08:08:13;;;;;;;22.55;10.88;;;-5.20;99.90;;;;;;5055474;28;20048;-70
2021/12/22 08:10:41;;;;;;;25.42;11.38;;;-5.20;99.90;;;;;;5056046;28;20389;-71
2021/12/22 08:13:07;;;;;;;24.20;11.50;;;-5.20;99.90;;;;;;5055461;28;20497;-72
2021/12/22 08:15:33;;;;;;;25.95;11.60;;;-5.10;99.90;;;;;;5055803;28;20133;-71
2021/12/22 08:17:58;;;;;;;23.77;10.23;;;-5.10;99.90;;;;;;5055655;28;20060;-68
2021/12/22 08:20:25;;;;;;;21.73;10.38;;;-5.10;99.90;;;;;;5055897;28;20052;-68
2021/12/22 08:22:50;;;;;;;23.40;10.07;;;-5.10;99.90;;;;;;5055542;28;20075;-71
2021/12/22 08:25:16;;;;;;;23.80;10.85;;;-5.00;99.90;;;;;;5055125;28;20045;-71
2021/12/22 08:27:42;;;;;;;24.48;10.70;;;-5.00;99.90;;;;;;5055310;28;20045;-69
2021/12/22 08:30:08;;;;;;;23.38;12.07;;;-5.00;99.90;;;;;;5055324;28;20124;-70
2021/12/22 08:32:35;;;;;;;25.45;11.88;;;-5.00;99.90;;;;;;5055316;28;20107;-67
2021/12/22 08:35:04;;;;;;;25.00;11.63;;;-5.00;99.90;;;;;;5055626;28;20037;-72
2021/12/22 08:40:17;;;;;;;22.90;11.85;;;-3.70;99.90;;;;;;5055040;28;20049;-68
2021/12/22 08:42:44;;;;;;;22.23;10.52;;;-4.90;99.90;;;;;;5050749;28;20492;-72
2021/12/22 08:45:11;;;;;;;22.42;11.18;;;-4.80;99.90;;;;;;5036154;28;20419;-73
2021/12/22 08:47:37;;;;;;;23.35;11.23;;;-4.80;99.90;;;;;;5040910;28;20057;-73
2021/12/22 08:50:05;;;;;;;25.70;11.93;;;-4.70;99.90;;;;;;5052413;28;20087;-72
2021/12/22 08:52:31;;;;;;;25.20;11.60;;;-4.70;99.90;;;;;;5053520;28;20037;-73
2021/12/22 08:54:57;;;;;;;29.10;12.40;;;-4.60;99.90;;;;;;5052217;28;20110;-69
2021/12/22 08:57:22;;;;;;;24.67;11.63;;;-3.90;99.90;;;;;;5054102;28;20045;-73
2021/12/22 08:59:48;;;;;;;26.85;11.95;;;-4.50;99.90;;;;;;5053803;28;20049;-72
2021/12/22 09:02:14;;;;;;;28.70;12.48;;;-4.50;99.90;;;;;;5052447;28;20052;-73
2021/12/22 09:04:40;;;;;;;26.88;12.55;;;-4.40;99.90;;;;;;5052586;28;20190;-73
2021/12/22 09:07:05;;;;;;;27.73;12.15;;;-3.00;99.90;;;;;;5054256;28;20191;-73
2021/12/22 09:09:31;;;;;;;26.98;10.88;;;-4.30;99.90;;;;;;5055079;28;20369;-74
2021/12/22 09:11:57;;;;;;;26.17;11.80;;;-4.20;99.90;;;;;;5054305;28;20040;-74
2021/12/22 09:14:24;;;;;;;26.90;12.45;;;-4.20;99.90;;;;;;5054437;28;20481;-69
2021/12/22 09:16:50;;;;;;;28.00;13.05;;;-4.20;99.90;;;;;;5044681;28;20047;-74
2021/12/22 09:19:16;;;;;;;25.92;11.57;;;-4.10;99.90;;;;;;5054037;28;20520;-70
2021/12/22 09:21:42;;;;;;;24.08;11.43;;;-4.10;99.90;;;;;;5049938;28;20041;-72
2021/12/22 09:24:08;;;;;;;28.85;13.10;;;-4.00;99.90;;;;;;5052603;28;20037;-74
2021/12/22 09:26:35;;;;;;;27.63;12.45;;;-4.00;99.90;;;;;;5050598;28;20254;-73
2021/12/22 09:29:02;;;;;;;24.55;11.90;;;-2.30;99.90;;;;;;5047771;28;20079;-81
2021/12/22 09:31:28;;;;;;;25.27;11.35;;;-3.90;99.90;;;;;;5053374;28;20120;-76
2021/12/22 09:33:57;;;;;;;26.95;11.93;;;-3.90;99.90;;;;;;5052294;28;20409;-79
2021/12/22 09:36:23;;;;;;;28.38;13.00;;;-3.80;99.90;;;;;;5052749;28;20028;-74
2021/12/22 09:38:49;;;;;;;26.65;11.85;;;-3.80;99.90;;;;;;5040507;28;20459;-74
2021/12/22 09:41:15;;;;;;;23.27;11.70;;;-3.70;99.90;;;;;;5035420;28;20067;-76
2021/12/22 09:43:44;;;;;;;26.75;13.13;;;-3.70;99.90;;;;;;5051203;28;20078;-78
2021/12/22 09:46:14;;;;;;;26.35;13.25;;;-3.70;99.90;;;;;;5052482;28;20175;-76
2021/12/22 09:53:43;;;;;;;28.42;12.70;;;-3.70;99.90;;;;;;5049898;28;20045;-76
2021/12/22 09:56:10;;;;;;;29.10;13.00;;;-3.60;99.90;;;;;;5036258;28;20045;-73
2021/12/22 09:58:43;;;;;;;27.80;12.93;;;-3.60;99.90;;;;;;5032396;28;20432;-71
2021/12/22 10:01:10;;;;;;;29.98;12.48;;;-3.50;99.90;;;;;;5031634;28;20048;-75
2021/12/22 10:03:36;;;;;;;27.15;11.60;;;-3.40;99.90;;;;;;5031083;28;20056;-74
2021/12/22 10:06:02;;;;;;;26.05;11.02;;;-3.40;99.90;;;;;;5047470;28;20044;-71
2021/12/22 10:08:29;;;;;;;26.80;12.35;;;-3.30;99.90;;;;;;5050339;28;20044;-75
2021/12/22 10:11:06;;;;;;;25.95;12.10;;;-3.30;99.90;;;;;;5035253;28;20044;-76
2021/12/22 10:13:34;;;;;;;28.15;12.82;;;-3.20;99.90;;;;;;5049371;28;20040;-76
2021/12/22 10:16:16;;;;;;;28.00;12.93;;;-2.00;99.90;;;;;;5033513;28;20124;-73
2021/12/22 10:18:42;;;;;;;28.63;13.13;;;-3.00;99.90;;;;;;5049686;28;20036;-76
2021/12/22 10:21:15;;;;;;;27.08;12.98;;;-2.60;99.90;;;;;;5030104;28;20060;-73
2021/12/22 10:23:53;;;;;;;26.30;12.77;;;-2.90;99.90;;;;;;5030486;28;20069;-75
2021/12/22 10:26:27;;;;;;;26.00;12.20;;;-2.80;99.90;;;;;;5047937;28;20390;-74
2021/12/22 10:29:07;;;;;;;26.98;13.10;;;-2.00;99.90;;;;;;5032184;28;20080;-77
2021/12/22 10:31:40;;;;;;;28.60;11.85;;;-2.70;99.90;;;;;;5048607;28;20049;-76
2021/12/22 10:34:09;;;;;;;28.65;12.93;;;-2.60;99.90;;;;;;5047381;28;20045;-73
2021/12/22 10:36:48;;;;;;;26.25;12.82;;;-2.60;99.90;;;;;;5032319;28;20037;-71
2021/12/22 10:39:27;;;;;;;25.23;12.07;;;-1.30;99.90;;;;;;5028575;28;20053;-73
2021/12/22 10:42:10;;;;;;;25.48;12.18;;;-2.50;99.90;;;;;;5048626;28;20098;-76
2021/12/22 10:44:39;;;;;;;24.73;11.93;;;-2.40;99.90;;;;;;5028299;28;20041;-76
2021/12/22 10:47:19;;;;;;;27.38;13.48;;;-2.30;99.90;;;;;;5048193;28;20049;-75
2021/12/22 10:50:04;;;;;;;25.10;12.68;;;-0.80;99.90;;;;;;5032059;28;20061;-73
2021/12/22 10:52:31;;;;;;;24.33;11.85;;;-2.30;99.90;;;;;;5028092;28;20128;-72
2021/12/22 10:55:12;;;;;;;26.40;12.68;;;-2.20;99.90;;;;;;5047914;28;20124;-73
2021/12/22 10:57:40;;;;;;;25.35;11.90;;;-2.20;99.90;;;;;;5049443;28;20131;-74
2021/12/22 11:00:25;;;;;;;25.42;11.77;;;-2.10;99.90;;;;;;5032175;28;20072;-77
2021/12/22 11:03:05;;;;;;;23.40;11.80;;;-2.00;99.90;;;;;;5031095;28;20158;-76
2021/12/22 11:05:46;;;;;;;25.02;11.48;;;-1.90;99.90;;;;;;5030932;28;20057;-74
2021/12/22 11:08:20;;;;;;;23.33;11.40;;;-1.80;99.90;;;;;;5030527;28;20476;-75
2021/12/22 11:10:47;;;;;;;22.38;11.90;;;-1.80;99.90;;;;;;5049837;28;20059;-73
2021/12/22 11:13:21;;;;;;;27.73;12.52;;;-1.80;99.90;;;;;;5017338;28;20048;-71
2021/12/22 11:15:47;;;;;;;25.23;11.13;;;-1.70;99.90;;;;;;5032829;28;20061;-71
2021/12/22 11:18:26;;;;;;;23.27;10.90;;;-1.70;99.90;;;;;;5053624;28;20047;-72
2021/12/22 11:21:17;;;;;;;21.30;10.35;;;-0.80;99.90;;;;;;5035465;28;20037;-71
2021/12/22 11:23:44;;;;;;;21.40;11.05;;;-1.60;99.90;;;;;;5052792;28;20055;-73
2021/12/22 11:26:12;;;;;;;20.20;9.95;;;-1.50;99.90;;;;;;5052909;28;20087;-74
2021/12/22 11:28:38;;;;;;;20.48;10.05;;;-1.50;99.90;;;;;;5053157;28;20508;-74
2021/12/22 11:31:07;;;;;;;19.80;9.68;;;-1.50;99.90;;;;;;5053384;28;20450;-76
2021/12/22 11:33:34;;;;;;;22.17;10.63;;;-1.40;99.90;;;;;;5053565;28;20045;-74
2021/12/22 11:36:00;;;;;;;22.80;10.48;;;-1.40;99.90;;;;;;5034598;28;20045;-77
2021/12/22 11:38:28;;;;;;;24.13;11.43;;;-1.40;99.90;;;;;;5053220;28;20151;-73
2021/12/22 11:41:02;;;;;;;22.25;11.25;;;-0.20;99.90;;;;;;5053716;28;20420;-75
2021/12/22 11:43:27;;;;;;;21.73;10.43;;;-0.80;99.90;;;;;;5053037;28;20110;-74
2021/12/22 11:45:55;;;;;;;19.55;10.40;;;-0.20;99.90;;;;;;5037313;28;20139;-76
2021/12/22 11:48:21;;;;;;;22.02;10.48;;;-1.30;99.90;;;;;;5034356;28;20128;-74
2021/12/22 11:50:48;;;;;;;22.38;10.60;;;-1.30;99.90;;;;;;5051903;28;20052;-75
2021/12/22 11:53:14;;;;;;;24.38;11.65;;;-1.30;99.90;;;;;;5032379;28;20568;-75
2021/12/22 11:55:49;;;;;;;18.83;8.93;;;-1.30;99.90;;;;;;5036721;28;20497;-75
2021/12/22 11:58:20;;;;;;;22.15;10.38;;;-1.30;99.90;;;;;;5014650;28;20049;-76
2021/12/22 12:00:55;;;;;;;21.40;9.45;;;-1.30;99.90;;;;;;5052382;28;20049;-74
2021/12/22 12:03:40;;;;;;;19.58;9.07;;;-1.30;99.90;;;;;;5052938;28;20140;-76
2021/12/22 12:06:14;;;;;;;21.55;10.00;;;-1.20;99.90;;;;;;5046846;28;20037;-75
2021/12/22 12:08:51;;;;;;;19.85;9.88;;;-1.10;99.90;;;;;;5048115;28;20041;-80
2021/12/22 12:12:16;;;;;;;24.33;9.98;;;-1.10;99.90;;;;;;5051761;28;20679;-80
2021/12/22 12:23:27;;;;;;;21.02;10.13;;;-1.00;99.90;;;;;;5049664;28;20109;-77
2021/12/22 12:25:55;;;;;;;20.73;10.13;;;-1.00;99.90;;;;;;5033547;28;20063;-76
2021/12/22 12:28:22;;;;;;;19.42;9.52;;;-1.00;99.90;;;;;;5034725;28;20392;-76
2021/12/22 12:30:49;;;;;;;18.70;9.45;;;-1.00;99.90;;;;;;5051568;28;20106;-73
2021/12/22 12:33:32;;;;;;;20.92;9.75;;;0.10;99.90;;;;;;5047965;28;20201;-75
2021/12/22 12:36:01;;;;;;;23.08;9.43;;;-1.00;99.90;;;;;;5050089;28;20519;-77
2021/12/22 12:38:49;;;;;;;18.55;9.48;;;-2.10;99.90;;;;;;5030795;28;20404;-70
2021/12/22 12:41:32;;;;;;;20.05;9.23;;;-1.00;99.90;;;;;;5050876;28;20053;-74
2021/12/22 12:44:03;;;;;;;23.02;10.07;;;-1.00;99.90;;;;;;5052387;28;20041;-74
2021/12/22 12:46:38;;;;;;;22.33;9.88;;;-1.00;99.90;;;;;;5032688;28;20056;-74
2021/12/22 12:49:04;;;;;;;19.50;9.75;;;-0.90;99.90;;;;;;5052148;28;20114;-74
2021/12/22 12:51:34;;;;;;;19.17;10.10;;;-1.00;99.90;;;;;;5051065;28;20057;-70
2021/12/22 12:54:02;;;;;;;19.60;8.68;;;-1.00;99.90;;;;;;5050933;28;20048;-72
2021/12/22 12:56:38;;;;;;;16.85;8.02;;;-0.90;99.90;;;;;;5031412;28;20041;-72
2021/12/22 12:59:06;;;;;;;17.92;8.85;;;-1.00;99.90;;;;;;5051861;28;20056;-73
2021/12/22 13:01:47;;;;;;;20.88;10.00;;;-1.00;99.90;;;;;;5046968;28;20521;-71
2021/12/22 13:04:26;;;;;;;21.15;8.88;;;-1.00;99.90;;;;;;5033413;28;20480;-69
2021/12/22 13:07:00;;;;;;;17.52;8.75;;;-0.90;99.90;;;;;;5031785;28;20443;-75
2021/12/22 13:09:29;;;;;;;18.30;9.43;;;-0.90;99.90;;;;;;5033586;28;20132;-72
2021/12/22 13:12:03;;;;;;;20.50;9.02;;;-0.90;99.90;;;;;;5030603;28;20049;-72
2021/12/22 13:17:15;;;;;;;20.45;9.82;;;-0.90;99.90;;;;;;5048450;28;20045;-72